Accueil
METAR-TAF:

METAR-TAF

Aéroports :

Nouméa, Nouvelle-Calédonie

Aéroport de Magenta

latitude: 22-15-30S, longitude: 166-28-22E, altitude: 3 m

METAR: absent

Heure: 17:30 (06:30 UTC)

Prévision

Le bulletin a été fait il y a 13 heures et 30 minutes, à 17:00 UTC
Prévision valable du 11 à 18 UTC au 12 à 18 UTC
Vent 2 kt de direction variable
Visibilité 10 km ou plus
Nuages épars à une hauteur de 3500 ft
Nuages épars à une hauteur de 6500 ft
Temporairement
du 11 à 18 UTC au 11 à 22 UTC
averses de pluie
Evoluant progressivement
du 11 à 22 UTC au 11 à 24 UTC
Vent 8 kt de sud-ouest
Temporairement
du 12 à 00 UTC au 12 à 08 UTC
Visibilité: 3000 m
Nuages épars à une hauteur de 2000 ft, Cumulonimbus.
averses de pluie
Temporairement
du 12 à 08 UTC au 12 à 18 UTC
averses de pluie

TAF: NWWM 111700Z 1118/1218 VRB02KT 9999 SCT035 SCT065 TEMPO 1118/1122 SHRA BECMG 1122/1124 23008KT TEMPO 1200/1208 3000 SHRA SCT020CB TEMPO 1208/1218 SHRA

Observations et prévisions météorologiques de plus de 4000 aéroports (messages METAR et TAF).

Les stations disponibles sont représentées par des disques jaunes et rouges sur la carte.

Passer la souris dessus pour voir le nom de la station.

Cliquer dessus pour voir les observations et prévisions météorologiques.

Pour changer de carte: cliquez sur les boutons verts avec une croix noire pour zoomer, sur le bouton vert avec un tiret pour effectuer un zoom arrière, ou sur les flèches vertes pour les cartes adjacentes.


METAR-TAF: